EGXT

Details ICAO EGXT
Name RAF Witerring
Region United Kingdom
Timezone Europe/London (UTC+0.0)
Plans Departing 2
Arriving 3
Stats Elevation 273 ft / 83 m (AMSL)
Location 52.613084° -0.476080°
Runways 1
Magnetic Variation 0.695° W
Sunrise 2017-12-17 08:09:53 UTC / 2017-12-17 08:09:53 Local
Sunset 2017-12-17 15:48:54 UTC / 2017-12-17 15:48:54 Local
Advertisement - Login to hide

Runways

ID Width Length Bearing (true) Bearing (mag) Surface Threshold Offset Overrun Length
08 200 ft / 61 m 8,994 ft / 2,742 m 73.08° 73.78° Asphalt 0 ft / 0 m 0 ft / 0 m
26 200 ft / 61 m 8,994 ft / 2,742 m 253.12° 253.82° Asphalt 0 ft / 0 m 0 ft / 0 m

Map

Weather


0- 5 10 15 20 25 30 35+ Temperature / ° C

Clouds and Precipitation
Forecast for 2017-12-18 00:00 UTC. Updated 28 minutes ago

Ground ~20,000 ft ~40,000 ft Winds

METAR

EGXT 171850Z AUTO 26014KT 9999 FEW019/// BKN150/// 08/08 Q1016

TAF

Not found

Frequencies

Tower 125.52 MHz Wittering Tower
Approach 130.20 MHz Wittering Approach
Warning: Do not use this data for real-world aviation or navigation. No guarantee of current accuracy is given.